QTR989 YSCB-YMML
Flight info
| Callsign | QTR989 |
|---|---|
| Flight time | 1h 7m |
| Altitude | 34000 |
| Route | CB Q215 TANTA Q29 ML |
| Aircraft | B77W/H-SDE1E2E3FGHIJ2J3J4J5M1RWXY/LB1D1 |
Departure
| Time | 2026-05-04 09:11 |
|---|---|
| Airport | Canberra Airport (YSCB) |
Arrival
| Time | 2026-05-04 10:19 |
|---|---|
| Airport | Melbourne Airport (YMML) |
| Time | Latitude | Longitude | Altitude | Speed | Heading |
|---|---|---|---|---|---|
| 2026-05-04 08:37 | -35.30615 | 149.19034 | 1884 ft | 0 kts | 220° |
| 2026-05-04 09:01 | -35.30539 | 149.19019 | 1874 ft | 0 kts | 130° |
| 2026-05-04 09:04 | -35.30544 | 149.19026 | 1877 ft | 6 kts | 130° |
| 2026-05-04 09:04 | -35.30590 | 149.19093 | 1874 ft | 11 kts | 130° |
| 2026-05-04 09:04 | -35.30641 | 149.19168 | 1874 ft | 12 kts | 130° |
| 2026-05-04 09:04 | -35.30690 | 149.19222 | 1880 ft | 5 kts | 150° |
| 2026-05-04 09:05 | -35.30695 | 149.19225 | 1879 ft | 4 kts | 153° |
| 2026-05-04 09:05 | -35.30756 | 149.19239 | 1877 ft | 11 kts | 176° |
| 2026-05-04 09:05 | -35.30835 | 149.19242 | 1880 ft | 11 kts | 178° |
| 2026-05-04 09:05 | -35.30920 | 149.19242 | 1880 ft | 14 kts | 182° |
| 2026-05-04 09:06 | -35.31030 | 149.19238 | 1880 ft | 16 kts | 181° |
| 2026-05-04 09:07 | -35.31968 | 149.19271 | 1876 ft | 15 kts | 141° |
| 2026-05-04 09:08 | -35.31983 | 149.19289 | 1876 ft | 6 kts | 133° |
| 2026-05-04 09:08 | -35.32006 | 149.19341 | 1878 ft | 9 kts | 105° |
| 2026-05-04 09:08 | -35.31989 | 149.19423 | 1878 ft | 11 kts | 40° |
| 2026-05-04 09:08 | -35.31926 | 149.19443 | 1880 ft | 4 kts | 3° |
| 2026-05-04 09:11 | -35.31924 | 149.19444 | 1880 ft | 3 kts | 3° |
| 2026-05-04 09:11 | -35.31744 | 149.19448 | 1876 ft | 72 kts | 0° |
| 2026-05-04 09:11 | -35.30819 | 149.19431 | 1887 ft | 188 kts | 359° |
| 2026-05-04 09:11 | -35.29345 | 149.19441 | 2772 ft | 233 kts | 359° |
| 2026-05-04 09:12 | -35.27642 | 149.19524 | 4223 ft | 245 kts | 1° |
| 2026-05-04 09:12 | -35.25951 | 149.19725 | 5220 ft | 248 kts | 359° |
| 2026-05-04 09:14 | -35.14744 | 149.20899 | 9684 ft | 196 kts | 337° |
| 2026-05-04 09:14 | -35.13570 | 149.20079 | 9934 ft | 198 kts | 319° |
| 2026-05-04 09:14 | -35.12731 | 149.18729 | 9963 ft | 205 kts | 298° |
| 2026-05-04 09:14 | -35.12428 | 149.17004 | 10014 ft | 213 kts | 279° |
| 2026-05-04 09:15 | -35.12765 | 149.15225 | 10310 ft | 222 kts | 255° |
| 2026-05-04 09:15 | -35.13486 | 149.13541 | 10993 ft | 225 kts | 254° |
| 2026-05-04 09:15 | -35.14218 | 149.11826 | 11693 ft | 231 kts | 253° |
| 2026-05-04 09:15 | -35.14970 | 149.10064 | 12421 ft | 238 kts | 253° |
| 2026-05-04 09:17 | -35.22724 | 148.93720 | 18256 ft | 341 kts | 219° |
| 2026-05-04 09:18 | -35.25019 | 148.92669 | 18935 ft | 363 kts | 197° |
| 2026-05-04 09:18 | -35.27550 | 148.92215 | 19649 ft | 373 kts | 194° |
| 2026-05-04 09:18 | -35.30149 | 148.91833 | 20341 ft | 379 kts | 193° |
| 2026-05-04 09:18 | -35.32789 | 148.91457 | 21029 ft | 384 kts | 194° |
| 2026-05-04 09:19 | -35.35418 | 148.91067 | 21752 ft | 388 kts | 194° |
| 2026-05-04 09:19 | -35.38105 | 148.90649 | 22493 ft | 391 kts | 195° |
| 2026-05-04 09:19 | -35.40853 | 148.90208 | 23244 ft | 395 kts | 195° |
| 2026-05-04 09:19 | -35.43544 | 148.89768 | 23877 ft | 397 kts | 195° |
| 2026-05-04 09:20 | -35.46310 | 148.89308 | 24107 ft | 409 kts | 195° |
| 2026-05-04 09:20 | -35.49232 | 148.88811 | 24097 ft | 438 kts | 195° |
| 2026-05-04 09:20 | -35.52339 | 148.88287 | 24115 ft | 464 kts | 194° |
| 2026-05-04 09:20 | -35.55592 | 148.87749 | 24097 ft | 475 kts | 194° |
| 2026-05-04 09:21 | -35.58916 | 148.87212 | 24084 ft | 476 kts | 194° |
| 2026-05-04 09:21 | -35.62222 | 148.86667 | 24519 ft | 483 kts | 194° |
| 2026-05-04 09:21 | -35.65551 | 148.86074 | 25192 ft | 479 kts | 198° |
| 2026-05-04 09:21 | -35.68633 | 148.84719 | 25714 ft | 466 kts | 218° |
| 2026-05-04 09:22 | -35.71197 | 148.82477 | 26378 ft | 452 kts | 231° |
| 2026-05-04 09:22 | -35.73232 | 148.79634 | 27089 ft | 435 kts | 244° |
| 2026-05-04 09:22 | -35.74950 | 148.76548 | 27628 ft | 440 kts | 245° |
| 2026-05-04 09:22 | -35.76673 | 148.73404 | 28240 ft | 444 kts | 245° |
| 2026-05-04 09:23 | -35.78417 | 148.70253 | 28914 ft | 447 kts | 245° |
| 2026-05-04 09:23 | -35.80192 | 148.67093 | 29553 ft | 450 kts | 244° |
| 2026-05-04 09:23 | -35.81993 | 148.63921 | 30207 ft | 452 kts | 244° |
| 2026-05-04 09:23 | -35.83795 | 148.60764 | 30939 ft | 448 kts | 244° |
| 2026-05-04 09:25 | -35.96110 | 148.38951 | 34082 ft | 456 kts | 244° |
| 2026-05-04 09:25 | -35.97909 | 148.35743 | 34094 ft | 454 kts | 244° |
| 2026-05-04 09:26 | -36.01537 | 148.29274 | 34067 ft | 462 kts | 244° |
| 2026-05-04 09:26 | -36.05202 | 148.22731 | 34097 ft | 465 kts | 244° |
| 2026-05-04 09:27 | -36.08882 | 148.16139 | 34075 ft | 467 kts | 244° |
| 2026-05-04 09:27 | -36.12592 | 148.09476 | 34086 ft | 474 kts | 244° |
| 2026-05-04 09:28 | -36.16371 | 148.02710 | 34079 ft | 477 kts | 243° |
| 2026-05-04 09:28 | -36.20143 | 147.95962 | 34068 ft | 476 kts | 243° |
| 2026-05-04 09:29 | -36.23900 | 147.89215 | 34073 ft | 476 kts | 243° |
| 2026-05-04 09:29 | -36.27678 | 147.82485 | 34071 ft | 479 kts | 240° |
| 2026-05-04 09:30 | -36.29946 | 147.79378 | 34063 ft | 490 kts | 231° |
| 2026-05-04 09:30 | -36.32583 | 147.76727 | 34067 ft | 501 kts | 223° |
| 2026-05-04 09:30 | -36.35617 | 147.74514 | 34065 ft | 512 kts | 214° |
| 2026-05-04 09:30 | -36.38949 | 147.72842 | 34061 ft | 522 kts | 205° |
| 2026-05-04 09:31 | -36.46176 | 147.71042 | 34067 ft | 535 kts | 194° |
| 2026-05-04 09:31 | -36.53574 | 147.69977 | 34063 ft | 536 kts | 193° |
| 2026-05-04 09:32 | -36.60991 | 147.68989 | 34042 ft | 536 kts | 192° |
| 2026-05-04 09:34 | -36.89381 | 147.65181 | 34026 ft | 536 kts | 192° |
| 2026-05-04 09:34 | -36.96729 | 147.63645 | 34015 ft | 525 kts | 204° |
| 2026-05-04 09:35 | -37.03172 | 147.59905 | 34007 ft | 506 kts | 221° |
| 2026-05-04 09:35 | -37.08315 | 147.54116 | 34007 ft | 485 kts | 239° |
| 2026-05-04 09:37 | -37.13855 | 147.27681 | 33996 ft | 443 kts | 277° |
| 2026-05-04 09:37 | -37.13693 | 147.23827 | 33996 ft | 443 kts | 279° |
| 2026-05-04 09:38 | -37.13195 | 147.16130 | 33994 ft | 443 kts | 280° |
| 2026-05-04 09:38 | -37.12669 | 147.08437 | 33996 ft | 443 kts | 279° |
| 2026-05-04 09:39 | -37.12166 | 147.00731 | 34012 ft | 443 kts | 279° |
| 2026-05-04 09:39 | -37.11675 | 146.93051 | 34017 ft | 441 kts | 279° |
| 2026-05-04 09:40 | -37.11191 | 146.85436 | 34001 ft | 426 kts | 279° |
| 2026-05-04 09:40 | -37.10963 | 146.81819 | 33990 ft | 409 kts | 279° |
| 2026-05-04 09:40 | -37.10740 | 146.78327 | 33990 ft | 398 kts | 280° |
| 2026-05-04 09:41 | -37.10511 | 146.74866 | 33473 ft | 404 kts | 280° |
| 2026-05-04 09:42 | -37.08897 | 146.50754 | 29646 ft | 386 kts | 281° |
| 2026-05-04 09:43 | -37.08672 | 146.47417 | 29086 ft | 382 kts | 281° |
| 2026-05-04 09:43 | -37.08450 | 146.44118 | 28584 ft | 378 kts | 281° |
| 2026-05-04 09:43 | -37.08229 | 146.40856 | 28081 ft | 373 kts | 281° |
| 2026-05-04 09:43 | -37.08226 | 146.37616 | 27585 ft | 378 kts | 270° |
| 2026-05-04 09:44 | -37.08777 | 146.34380 | 27111 ft | 382 kts | 262° |
| 2026-05-04 09:44 | -37.09680 | 146.31231 | 26632 ft | 386 kts | 253° |
| 2026-05-04 09:44 | -37.11042 | 146.28290 | 26165 ft | 392 kts | 245° |
| 2026-05-04 09:46 | -37.24611 | 146.13245 | 24716 ft | 381 kts | 195° |
| 2026-05-04 09:46 | -37.27262 | 146.12787 | 24431 ft | 378 kts | 193° |
| 2026-05-04 09:46 | -37.29861 | 146.12399 | 24091 ft | 375 kts | 192° |
| 2026-05-04 09:47 | -37.32450 | 146.12013 | 23766 ft | 372 kts | 192° |
| 2026-05-04 09:47 | -37.34969 | 146.11631 | 23481 ft | 368 kts | 192° |
| 2026-05-04 09:49 | -37.52344 | 146.08842 | 20686 ft | 353 kts | 192° |
| 2026-05-04 09:49 | -37.54769 | 146.08457 | 20354 ft | 350 kts | 192° |
| 2026-05-04 09:49 | -37.57171 | 146.08077 | 20040 ft | 347 kts | 192° |
| 2026-05-04 09:51 | -37.71308 | 146.05766 | 17864 ft | 336 kts | 192° |
| 2026-05-04 09:51 | -37.73617 | 146.05369 | 17455 ft | 334 kts | 192° |
| 2026-05-04 09:51 | -37.75913 | 146.04970 | 17098 ft | 332 kts | 192° |
| 2026-05-04 09:51 | -37.78188 | 146.04574 | 16740 ft | 330 kts | 192° |
| 2026-05-04 09:52 | -37.80456 | 146.04180 | 16366 ft | 328 kts | 192° |
| 2026-05-04 09:52 | -37.82714 | 146.03790 | 16006 ft | 326 kts | 192° |
| 2026-05-04 09:52 | -37.84957 | 146.03405 | 15661 ft | 324 kts | 192° |
| 2026-05-04 09:52 | -37.87165 | 146.02957 | 15222 ft | 317 kts | 201° |
| 2026-05-04 09:53 | -37.89079 | 146.01708 | 14741 ft | 306 kts | 226° |
| 2026-05-04 09:53 | -37.90334 | 145.99631 | 14407 ft | 292 kts | 251° |
| 2026-05-04 09:53 | -37.90641 | 145.97184 | 14097 ft | 280 kts | 281° |
| 2026-05-04 09:53 | -37.89869 | 145.94981 | 13764 ft | 276 kts | 308° |
| 2026-05-04 09:54 | -37.88501 | 145.93281 | 13383 ft | 276 kts | 319° |
| 2026-05-04 09:54 | -37.86951 | 145.91841 | 13048 ft | 274 kts | 323° |
| 2026-05-04 09:54 | -37.85371 | 145.90571 | 12992 ft | 266 kts | 326° |
| 2026-05-04 09:54 | -37.83770 | 145.89376 | 12936 ft | 268 kts | 327° |
| 2026-05-04 09:55 | -37.82148 | 145.88219 | 12948 ft | 275 kts | 328° |
| 2026-05-04 09:55 | -37.80449 | 145.87041 | 12758 ft | 282 kts | 328° |
| 2026-05-04 09:55 | -37.78695 | 145.85848 | 12296 ft | 290 kts | 328° |
| 2026-05-04 09:55 | -37.76911 | 145.84653 | 12001 ft | 290 kts | 329° |
| 2026-05-04 09:56 | -37.75127 | 145.83470 | 11765 ft | 287 kts | 329° |
| 2026-05-04 09:56 | -37.73369 | 145.82310 | 11583 ft | 284 kts | 329° |
| 2026-05-04 09:56 | -37.71622 | 145.81162 | 11397 ft | 281 kts | 328° |
| 2026-05-04 09:56 | -37.69899 | 145.80031 | 11168 ft | 279 kts | 329° |
| 2026-05-04 09:57 | -37.68178 | 145.78902 | 10954 ft | 282 kts | 329° |
| 2026-05-04 09:57 | -37.66359 | 145.77703 | 10888 ft | 303 kts | 328° |
| 2026-05-04 09:57 | -37.64465 | 145.76459 | 10265 ft | 310 kts | 329° |
| 2026-05-04 09:57 | -37.62609 | 145.75250 | 9749 ft | 289 kts | 328° |
| 2026-05-04 09:58 | -37.60894 | 145.74135 | 9301 ft | 267 kts | 329° |
| 2026-05-04 09:58 | -37.59314 | 145.73107 | 9029 ft | 243 kts | 329° |
| 2026-05-04 09:58 | -37.57853 | 145.72154 | 9048 ft | 234 kts | 328° |
| 2026-05-04 10:00 | -37.47819 | 145.64946 | 9027 ft | 241 kts | 301° |
| 2026-05-04 10:00 | -37.47233 | 145.62957 | 9037 ft | 247 kts | 281° |
| 2026-05-04 10:02 | -37.53457 | 145.49357 | 9019 ft | 270 kts | 239° |
| 2026-05-04 10:04 | -37.61195 | 145.36006 | 9015 ft | 271 kts | 239° |
| 2026-05-04 10:04 | -37.62305 | 145.34086 | 9010 ft | 270 kts | 239° |
| 2026-05-04 10:04 | -37.63406 | 145.32180 | 9004 ft | 269 kts | 239° |
| 2026-05-04 10:04 | -37.64498 | 145.30290 | 8991 ft | 261 kts | 239° |
| 2026-05-04 10:05 | -37.65550 | 145.28472 | 8915 ft | 249 kts | 239° |
| 2026-05-04 10:05 | -37.66543 | 145.26753 | 8644 ft | 238 kts | 240° |
| 2026-05-04 10:05 | -37.67508 | 145.25075 | 8394 ft | 235 kts | 240° |
| 2026-05-04 10:05 | -37.68461 | 145.23417 | 8151 ft | 231 kts | 240° |
| 2026-05-04 10:06 | -37.69524 | 145.21906 | 7774 ft | 237 kts | 220° |
| 2026-05-04 10:06 | -37.71104 | 145.21139 | 7380 ft | 251 kts | 197° |
| 2026-05-04 10:06 | -37.72843 | 145.20845 | 7084 ft | 251 kts | 193° |
| 2026-05-04 10:08 | -37.83117 | 145.19669 | 6010 ft | 248 kts | 192° |
| 2026-05-04 10:08 | -37.84857 | 145.19475 | 5996 ft | 250 kts | 192° |
| 2026-05-04 10:08 | -37.86445 | 145.18930 | 5977 ft | 233 kts | 219° |
| 2026-05-04 10:08 | -37.87510 | 145.17521 | 5987 ft | 216 kts | 251° |
| 2026-05-04 10:09 | -37.87981 | 145.15753 | 5992 ft | 213 kts | 260° |
| 2026-05-04 10:09 | -37.88320 | 145.13927 | 5992 ft | 214 kts | 262° |
| 2026-05-04 10:09 | -37.88720 | 145.12112 | 5984 ft | 216 kts | 247° |
| 2026-05-04 10:09 | -37.89638 | 145.10579 | 5990 ft | 223 kts | 234° |
| 2026-05-04 10:10 | -37.90724 | 145.09148 | 5992 ft | 227 kts | 232° |
| 2026-05-04 10:10 | -37.91837 | 145.07716 | 5988 ft | 229 kts | 232° |
| 2026-05-04 10:10 | -37.92962 | 145.06270 | 5987 ft | 230 kts | 232° |
| 2026-05-04 10:10 | -37.94041 | 145.04811 | 5963 ft | 221 kts | 242° |
| 2026-05-04 10:11 | -37.94508 | 145.03058 | 5944 ft | 208 kts | 274° |
| 2026-05-04 10:11 | -37.94116 | 145.01332 | 5718 ft | 206 kts | 300° |
| 2026-05-04 10:11 | -37.93307 | 144.99849 | 5389 ft | 208 kts | 305° |
| 2026-05-04 10:11 | -37.92423 | 144.98395 | 5091 ft | 208 kts | 306° |
| 2026-05-04 10:12 | -37.91529 | 144.96961 | 4805 ft | 207 kts | 306° |
| 2026-05-04 10:12 | -37.90636 | 144.95532 | 4515 ft | 206 kts | 306° |
| 2026-05-04 10:12 | -37.89754 | 144.94112 | 4214 ft | 204 kts | 306° |
| 2026-05-04 10:12 | -37.88874 | 144.92705 | 3915 ft | 203 kts | 306° |
| 2026-05-04 10:13 | -37.88001 | 144.91304 | 3625 ft | 203 kts | 306° |
| 2026-05-04 10:13 | -37.87129 | 144.89903 | 3343 ft | 202 kts | 306° |
| 2026-05-04 10:13 | -37.86268 | 144.88523 | 3159 ft | 197 kts | 306° |
| 2026-05-04 10:13 | -37.85444 | 144.87203 | 3062 ft | 185 kts | 306° |
| 2026-05-04 10:14 | -37.84598 | 144.86064 | 2990 ft | 171 kts | 328° |
| 2026-05-04 10:14 | -37.83331 | 144.85849 | 2934 ft | 199 kts | 354° |
| 2026-05-04 10:16 | -37.74879 | 144.85330 | 1906 ft | 130 kts | 344° |
| 2026-05-04 10:16 | -37.73979 | 144.85148 | 1595 ft | 134 kts | 345° |
| 2026-05-04 10:16 | -37.73081 | 144.84998 | 1476 ft | 131 kts | 346° |
| 2026-05-04 10:16 | -37.72177 | 144.84857 | 1294 ft | 132 kts | 346° |
| 2026-05-04 10:17 | -37.71288 | 144.84647 | 1138 ft | 128 kts | 347° |
| 2026-05-04 10:17 | -37.70381 | 144.84449 | 958 ft | 133 kts | 351° |
| 2026-05-04 10:19 | -37.66908 | 144.83883 | 391 ft | 4 kts | 19° |
| 2026-05-04 10:19 | -37.66893 | 144.83889 | 394 ft | 0 kts | 19° |
| 2026-05-04 10:19 | -37.66890 | 144.83891 | 394 ft | 3 kts | 20° |
| 2026-05-04 10:19 | -37.66852 | 144.83909 | 392 ft | 6 kts | 21° |
| 2026-05-04 10:20 | -37.66825 | 144.83923 | 395 ft | 7 kts | 22° |
| 2026-05-04 10:20 | -37.66747 | 144.83975 | 396 ft | 14 kts | 44° |
| 2026-05-04 10:20 | -37.66724 | 144.84091 | 396 ft | 14 kts | 98° |
| 2026-05-04 10:20 | -37.66786 | 144.84186 | 396 ft | 16 kts | 156° |
| 2026-05-04 10:21 | -37.66909 | 144.84215 | 393 ft | 20 kts | 171° |
| 2026-05-04 10:21 | -37.67086 | 144.84246 | 389 ft | 15 kts | 173° |
| 2026-05-04 10:21 | -37.67160 | 144.84263 | 387 ft | 17 kts | 158° |
| 2026-05-04 10:21 | -37.67200 | 144.84370 | 388 ft | 10 kts | 90° |
| 2026-05-04 10:22 | -37.67265 | 144.84489 | 388 ft | 8 kts | 168° |
| 2026-05-04 10:22 | -37.67291 | 144.84495 | 388 ft | 0 kts | 171° |